Stephanie Dann — WCD9870 — position and weather

sailwx.info

Track history (hours):
 
Tides and Currents Weather Stations Pressure Air Temp Water Temp Dewpoint Dewpoint Depression Visibility Wind Speed Wind Dir Waves Ship Positions

Stephanie Dann

Owner: DANN TOWING CO, TAMPA, FL. More information available from US FCC via Universal Licensing System and Coast Guard Vessel Documentation Center.

Last reported at 2017-Oct-14 18:58 UTC. Time now 2017-Oct-22 08:28 UTC.
Position N 31°45' W 080°56'.

Length 28 m; draft 14 m.

Type: Towing. MMSI: 338871000.

Date/timePositionNaut miles runAvg speedWind from/ knotsBaromVisibWave heightAir tempDewpointWater temp
2017-Oct-14 18:58N 31°45' W 080°56'  
2017-Oct-10 15:54N 39°32' W 074°10'4 8.7
2017-Oct-10 15:28N 39°35' W 074°08'4 8.7
2017-Oct-10 14:59N 39°39' W 074°06'52 8.4
2017-Oct-10 08:49N 40°31' W 073°58'3 9.2
2017-Oct-10 08:30N 40°32' W 074°01'5 9.8
2017-Oct-10 08:00N 40°37' W 074°03'3 6.3
2017-Oct-10 07:30N 40°39' W 074°07'0 0.0
2017-Oct-10 05:10N 40°39' W 074°07'1 5.4
2017-Oct-10 05:00N 40°39' W 074°05'4 7.7
2017-Oct-10 04:30N 40°42' W 074°02'4 8.0
2017-Oct-10 04:00N 40°46' W 074°01'1 1.3
2017-Oct-10 03:30N 40°46' W 074°00'0 0.2
2017-Oct-10 03:00N 40°46' W 073°60'0 0.1
2017-Oct-10 02:30N 40°46' W 073°60'0 0.1
2017-Oct-10 01:57N 40°46' W 073°60'0 0.0
2017-Oct-10 01:30N 40°46' W 073°60'0 0.2
2017-Oct-10 01:00N 40°46' W 074°00'0 0.1
2017-Oct-10 00:30N 40°46' W 073°60'0 0.1
2017-Oct-10 00:00N 40°46' W 073°60'0 0.0
2017-Oct-09 23:27N 40°46' W 073°60'0 0.0
2017-Oct-09 22:57N 40°46' W 073°60'0 0.0
2017-Oct-09 22:30N 40°46' W 073°60'0 0.0
2017-Oct-09 22:00N 40°46' W 073°60'0 0.0
2017-Oct-09 21:30N 40°46' W 073°60'0 0.0
2017-Oct-09 21:00N 40°46' W 073°60'0 0.0
2017-Oct-09 20:24N 40°46' W 073°60'0 0.0
2017-Oct-09 20:00N 40°46' W 073°60'0 0.0
2017-Oct-09 19:30N 40°46' W 073°60'0 0.0
2017-Oct-09 18:57N 40°46' W 073°60'0 0.0
2017-Oct-09 18:30N 40°46' W 073°60'0 0.0
2017-Oct-09 18:00N 40°46' W 073°60'0 0.0
2017-Oct-09 17:30N 40°46' W 073°60'0 0.8
2017-Oct-09 16:59N 40°46' W 074°00'0 0.3
2017-Oct-09 16:29N 40°46' W 074°00'0 0.4
2017-Oct-09 15:59N 40°46' W 074°00'0 0.3
2017-Oct-09 15:29N 40°46' W 074°00'0 0.6
2017-Oct-09 14:59N 40°46' W 073°60'0 0.1
2017-Oct-09 14:29N 40°46' W 074°00'0 0.0
2017-Oct-09 13:59N 40°46' W 074°00'0 0.0
2017-Oct-09 13:29N 40°46' W 074°00'0 0.0
2017-Oct-09 12:59N 40°46' W 074°00'0 0.0
2017-Oct-09 12:29N 40°46' W 074°00'0 0.0
2017-Oct-09 11:59N 40°46' W 074°00'0 0.0
2017-Oct-09 11:26N 40°46' W 074°00'0 0.0
2017-Oct-09 10:59N 40°46' W 074°00'0 0.0
2017-Oct-09 10:29N 40°46' W 074°00'0 0.0
2017-Oct-09 09:59N 40°46' W 074°00'0 0.0
2017-Oct-09 09:29N 40°46' W 074°00'0 0.0
2017-Oct-09 08:59N 40°46' W 074°00'0 0.0
2017-Oct-09 08:26N 40°46' W 074°00'0 0.0
2017-Oct-09 07:59N 40°46' W 074°00'0 0.0
2017-Oct-09 07:29N 40°46' W 074°00'0 0.0
2017-Oct-09 06:59N 40°46' W 074°00'0 0.0
2017-Oct-09 06:29N 40°46' W 074°00'1 2.2
2017-Oct-09 06:00N 40°47' W 073°60'2 3.7
2017-Oct-09 05:30N 40°49' W 073°58'2 3.2
2017-Oct-09 05:00N 40°47' W 073°59'0 0.7
2017-Oct-09 04:31N 40°47' W 073°60'1 2.2
2017-Oct-09 04:00N 40°48' W 073°59'1 2.3
2017-Oct-09 03:30N 40°47' W 073°60'1 2.4
2017-Oct-09 02:59N 40°46' W 073°60'0 0.0
2017-Oct-09 02:29N 40°46' W 073°60'0 0.0
2017-Oct-09 01:56N 40°46' W 073°60'0 0.0
2017-Oct-09 01:29N 40°46' W 073°60'0 0.0
2017-Oct-09 00:59N 40°46' W 073°60'0 0.0
2017-Oct-09 00:30N 40°46' W 073°60'0 0.3
2017-Oct-09 00:00N 40°46' W 074°00'0 0.0
2017-Oct-08 23:30N 40°46' W 074°00'0 0.1
2017-Oct-08 23:00N 40°46' W 074°00'0 0.1
2017-Oct-08 22:31N 40°46' W 074°00'0 0.1
2017-Oct-08 21:58N 40°46' W 074°00'0 0.8
2017-Oct-08 21:28N 40°46' W 074°00'0 0.1
2017-Oct-08 20:58N 40°46' W 074°01'0 0.0
2017-Oct-08 20:28N 40°46' W 074°01'0 0.0
2017-Oct-08 19:58N 40°46' W 074°01'0 0.0
2017-Oct-08 19:28N 40°46' W 074°01'1 2.8
2017-Oct-08 19:00N 40°45' W 074°01'2 4.0
2017-Oct-08 18:30N 40°43' W 074°01'2 4.3
2017-Oct-08 18:00N 40°41' W 074°02'2 4.5
2017-Oct-08 17:30N 40°39' W 074°04'4 1.9
2017-Oct-08 15:31N 40°38' W 074°09'0 0.3
2017-Oct-08 15:26N 40°38' W 074°09'0 0.0
2017-Oct-08 14:56N 40°38' W 074°09'0 0.0
2017-Oct-08 14:20N 40°38' W 074°09'0 0.0
2017-Oct-08 13:56N 40°38' W 074°09'0 0.0
2017-Oct-08 13:26N 40°38' W 074°09'0 0.0
2017-Oct-08 12:56N 40°38' W 074°09'0 0.0
2017-Oct-08 12:29N 40°38' W 074°09'0 0.0
2017-Oct-08 11:59N 40°38' W 074°09'0 0.0
2017-Oct-08 10:59N 40°38' W 074°09'0 0.0
2017-Oct-08 10:26N 40°38' W 074°09'0 0.0
2017-Oct-08 09:59N 40°38' W 074°09'0 0.0
2017-Oct-08 09:29N 40°38' W 074°09'0 0.0
2017-Oct-08 08:59N 40°38' W 074°09'0 0.0
2017-Oct-08 08:29N 40°38' W 074°09'0 0.0
2017-Oct-08 07:59N 40°38' W 074°09'0 0.0
2017-Oct-08 07:29N 40°38' W 074°09'0 0.0
2017-Oct-08 06:59N 40°38' W 074°09'0 0.0
2017-Oct-08 06:29N 40°38' W 074°09'0 0.0
2017-Oct-08 05:59N 40°38' W 074°09'0 0.0
2017-Oct-08 05:29N 40°38' W 074°09'0 0.0
2017-Oct-08 04:56N 40°38' W 074°09'0 0.0
2017-Oct-08 04:20N 40°38' W 074°09'0 0.0
2017-Oct-08 03:56N 40°38' W 074°09'0 0.0
2017-Oct-08 03:29N 40°38' W 074°09'0 0.0
2017-Oct-08 02:59N 40°38' W 074°09'0 0.0
2017-Oct-08 02:26N 40°38' W 074°09'0 0.0
2017-Oct-08 01:59N 40°38' W 074°09'0 0.0
2017-Oct-08 01:29N 40°38' W 074°09'0 0.0
2017-Oct-08 00:59N 40°38' W 074°09'0 0.0
2017-Oct-08 00:29N 40°38' W 074°09'0 0.0
2017-Oct-07 23:59N 40°38' W 074°09'0 0.1
2017-Oct-07 22:01N 40°39' W 074°09'0 0.2
2017-Oct-07 22:00N 40°39' W 074°09'2 2.8
2017-Oct-07 21:27N 40°40' W 074°08'2 1.4
2017-Oct-07 20:21N 40°39' W 074°09'0 0.1
2017-Oct-07 19:51N 40°39' W 074°09'0 0.0
2017-Oct-07 19:03N 40°39' W 074°09'0 0.0
2017-Oct-07 18:57N 40°39' W 074°09'0 0.0
2017-Oct-07 17:51N 40°39' W 074°09'0 0.0
2017-Oct-07 17:23N 40°39' W 074°09'0 0.0
2017-Oct-07 17:00N 40°39' W 074°09'0 0.1
2017-Oct-07 16:11N 40°39' W 074°09'1 6.0
2017-Oct-07 16:00N 40°40' W 074°09'1 2.2
2017-Oct-07 15:29N 40°39' W 074°09'0 0.1
2017-Oct-07 11:06N 40°38' W 074°09'0 0.6
2017-Oct-07 10:57N 40°38' W 074°09'1 1.5
2017-Oct-07 10:30N 40°39' W 074°08'4 8.1
2017-Oct-07 10:00N 40°40' W 074°03'2 3.5
2017-Oct-07 09:29N 40°40' W 074°01'0 0.0
2017-Oct-07 08:59N 40°40' W 074°01'0 0.0
2017-Oct-07 08:29N 40°40' W 074°01'0 0.0
2017-Oct-07 07:59N 40°40' W 074°01'0 0.0
2017-Oct-07 07:29N 40°40' W 074°01'0 0.0
2017-Oct-07 06:59N 40°40' W 074°01'0 0.0
2017-Oct-07 06:29N 40°40' W 074°01'0 0.0
2017-Oct-07 05:59N 40°40' W 074°01'0 0.0
2017-Oct-07 05:29N 40°40' W 074°01'0 0.0
2017-Oct-07 04:59N 40°40' W 074°01'0 0.0
2017-Oct-07 04:29N 40°40' W 074°01'0 0.0
2017-Oct-07 03:59N 40°40' W 074°01'0 0.0
2017-Oct-07 03:29N 40°40' W 074°01'0 0.0
2017-Oct-07 02:59N 40°40' W 074°01'0 0.0
2017-Oct-07 02:29N 40°40' W 074°01'0 0.0
2017-Oct-07 01:56N 40°40' W 074°01'0 0.0
2017-Oct-07 01:29N 40°40' W 074°01'0 0.0
2017-Oct-07 00:59N 40°40' W 074°01'0 0.0
2017-Oct-07 00:29N 40°40' W 074°01'0 0.0
2017-Oct-06 23:59N 40°40' W 074°01'0 0.0
2017-Oct-06 23:29N 40°40' W 074°01'0 0.0
2017-Oct-06 22:59N 40°40' W 074°01'0 0.0
2017-Oct-06 22:23N 40°40' W 074°01'0 0.0
2017-Oct-06 21:59N 40°40' W 074°01'0 0.0
2017-Oct-06 21:29N 40°40' W 074°01'0 0.0
2017-Oct-06 20:59N 40°40' W 074°01'0 0.0
2017-Oct-06 20:29N 40°40' W 074°01'0 0.0
2017-Oct-06 19:59N 40°40' W 074°01'0 0.5
2017-Oct-06 19:30N 40°40' W 074°01'0 0.5
2017-Oct-06 18:59N 40°40' W 074°01'0 0.0
2017-Oct-06 18:26N 40°40' W 074°01'0 0.0
2017-Oct-06 17:59N 40°40' W 074°01'0 0.0
2017-Oct-06 17:29N 40°40' W 074°01'0 0.0
2017-Oct-06 16:59N 40°40' W 074°01'0 0.9
2017-Oct-06 16:31N 40°40' W 074°01'1 1.3
2017-Oct-06 16:00N 40°40' W 074°01'3 5.3
2017-Oct-06 15:30N 40°39' W 074°04'4 7.8
2017-Oct-06 15:00N 40°39' W 074°09'3 6.2
2017-Oct-06 14:30N 40°42' W 074°08'0 0.7
2017-Oct-06 13:59N 40°42' W 074°09'0 0.0
2017-Oct-06 13:29N 40°42' W 074°09'0 0.0
2017-Oct-06 12:56N 40°42' W 074°09'0 0.0
2017-Oct-06 12:29N 40°42' W 074°09'0 0.0
2017-Oct-06 11:56N 40°42' W 074°09'0 0.0
2017-Oct-06 11:23N 40°42' W 074°09'0 0.0
2017-Oct-06 10:56N 40°42' W 074°09'0 0.0
2017-Oct-06 10:29N 40°42' W 074°09'0 0.3
2017-Oct-06 09:59N 40°42' W 074°08'2 3.9
2017-Oct-06 09:30N 40°40' W 074°08'2 3.8
2017-Oct-06 09:00N 40°39' W 074°06'3 6.0
2017-Oct-06 08:30N 40°39' W 074°02'2 3.6
2017-Oct-06 08:00N 40°40' W 074°00'0 0.7
2017-Oct-06 07:31N 40°40' W 074°01'0 0.2
2017-Oct-06 06:59N 40°40' W 074°01'0 0.0
2017-Oct-06 06:29N 40°40' W 074°01'0 0.0
2017-Oct-06 05:59N 40°40' W 074°01'0 0.0
2017-Oct-06 05:29N 40°40' W 074°01'0 0.0
2017-Oct-06 04:59N 40°40' W 074°01'0 0.0
2017-Oct-06 04:29N 40°40' W 074°01'0 0.0
2017-Oct-06 03:59N 40°40' W 074°01'0 0.0
2017-Oct-06 03:29N 40°40' W 074°01'0 0.0
2017-Oct-06 02:59N 40°40' W 074°01'0 0.0
2017-Oct-06 02:29N 40°40' W 074°01'0 0.0
2017-Oct-06 01:59N 40°40' W 074°01'0 0.0
2017-Oct-06 01:29N 40°40' W 074°01'0 0.0
2017-Oct-06 00:56N 40°40' W 074°01'0 0.0
2017-Oct-06 00:29N 40°40' W 074°01'0 0.0
2017-Oct-05 23:56N 40°40' W 074°01'0 0.0
2017-Oct-05 23:26N 40°40' W 074°01'0 0.0
2017-Oct-05 22:59N 40°40' W 074°01'0 0.0
2017-Oct-05 22:29N 40°40' W 074°01'0 0.0
2017-Oct-05 21:56N 40°40' W 074°01'0 0.0
2017-Oct-05 21:29N 40°40' W 074°01'0 0.0
2017-Oct-05 20:59N 40°40' W 074°01'0 0.0
2017-Oct-05 20:26N 40°40' W 074°01'0 0.0
2017-Oct-05 19:59N 40°40' W 074°01'0 0.0
2017-Oct-05 19:29N 40°40' W 074°01'0 1.0
2017-Oct-05 19:00N 40°40' W 074°01'4 8.6
2017-Oct-05 18:29N 40°39' W 074°07'3 6.4
2017-Oct-05 17:57N 40°38' W 074°12'2 3.1
2017-Oct-05 17:19N 40°38' W 074°09'0 0.2
2017-Oct-05 16:55N 40°38' W 074°09'0 0.0
2017-Oct-05 14:06N 40°38' W 074°09'0 0.0
2017-Oct-05 11:20N 40°38' W 074°09'2 4.1
2017-Oct-05 10:52N 40°38' W 074°12'1 2.3
2017-Oct-05 10:30N 40°39' W 074°11'1 0.8
2017-Oct-05 08:57N 40°38' W 074°09'3 5.4
2017-Oct-05 08:29N 40°39' W 074°06'0 0.0
2017-Oct-05 07:59N 40°39' W 074°06'0 0.0
2017-Oct-05 07:29N 40°39' W 074°06'0 0.0
2017-Oct-05 06:56N 40°39' W 074°06'0 0.0
2017-Oct-05 06:26N 40°39' W 074°06'0 0.0
2017-Oct-05 05:56N 40°39' W 074°06'0 0.0
2017-Oct-05 05:29N 40°39' W 074°06'0 0.0
2017-Oct-05 04:59N 40°39' W 074°06'0 0.0
2017-Oct-05 04:29N 40°39' W 074°06'0 0.0
2017-Oct-05 03:59N 40°39' W 074°06'0 0.0
2017-Oct-05 03:23N 40°39' W 074°06'0 0.0
2017-Oct-05 02:59N 40°39' W 074°06'0 0.0
2017-Oct-05 02:26N 40°39' W 074°06'0 0.0
2017-Oct-05 01:59N 40°39' W 074°06'0 0.0
2017-Oct-05 01:29N 40°39' W 074°06'0 0.0
2017-Oct-05 00:59N 40°39' W 074°06'0 0.0
2017-Oct-05 00:29N 40°39' W 074°06'0 0.0
2017-Oct-04 23:56N 40°39' W 074°06'0 0.0
2017-Oct-04 23:29N 40°39' W 074°06'1 1.0
2017-Oct-04 22:42N 40°39' W 074°05'1 3.5
2017-Oct-04 22:29N 40°39' W 074°06'3 6.7
2017-Oct-04 22:00N 40°39' W 074°10'1 0.4
2017-Oct-04 19:55N 40°39' W 074°11'0 0.0
2017-Oct-04 19:19N 40°39' W 074°11'  
Track history (hours):
 
Tides and Currents Weather Stations Pressure Air Temp Water Temp Dewpoint Dewpoint Depression Visibility Wind Speed Wind Dir Waves Ship Positions

Stephanie Dann

Owner: DANN TOWING CO, TAMPA, FL. More information available from US FCC via Universal Licensing System and Coast Guard Vessel Documentation Center.

Last reported at 2017-Oct-14 18:58 UTC. Time now 2017-Oct-22 08:28 UTC.
Position N 31°45' W 080°56'.

Length 28 m; draft 14 m.

Type: Towing. MMSI: 338871000.

Date/timePositionNaut miles runAvg speedWind from/ knotsBaromVisibWave heightAir tempDewpointWater temp
2017-Oct-14 18:58N 31°45' W 080°56'  
2017-Oct-10 15:54N 39°32' W 074°10'4 8.7
2017-Oct-10 15:28N 39°35' W 074°08'4 8.7
2017-Oct-10 14:59N 39°39' W 074°06'52 8.4
2017-Oct-10 08:49N 40°31' W 073°58'3 9.2
2017-Oct-10 08:30N 40°32' W 074°01'5 9.8
2017-Oct-10 08:00N 40°37' W 074°03'3 6.3
2017-Oct-10 07:30N 40°39' W 074°07'0 0.0
2017-Oct-10 05:10N 40°39' W 074°07'1 5.4
2017-Oct-10 05:00N 40°39' W 074°05'4 7.7
2017-Oct-10 04:30N 40°42' W 074°02'4 8.0
2017-Oct-10 04:00N 40°46' W 074°01'1 1.3
2017-Oct-10 03:30N 40°46' W 074°00'0 0.2
2017-Oct-10 03:00N 40°46' W 073°60'0 0.1
2017-Oct-10 02:30N 40°46' W 073°60'0 0.1
2017-Oct-10 01:57N 40°46' W 073°60'0 0.0
2017-Oct-10 01:30N 40°46' W 073°60'0 0.2
2017-Oct-10 01:00N 40°46' W 074°00'0 0.1
2017-Oct-10 00:30N 40°46' W 073°60'0 0.1
2017-Oct-10 00:00N 40°46' W 073°60'0 0.0
2017-Oct-09 23:27N 40°46' W 073°60'0 0.0
2017-Oct-09 22:57N 40°46' W 073°60'0 0.0
2017-Oct-09 22:30N 40°46' W 073°60'0 0.0
2017-Oct-09 22:00N 40°46' W 073°60'0 0.0
2017-Oct-09 21:30N 40°46' W 073°60'0 0.0
2017-Oct-09 21:00N 40°46' W 073°60'0 0.0
2017-Oct-09 20:24N 40°46' W 073°60'0 0.0
2017-Oct-09 20:00N 40°46' W 073°60'0 0.0
2017-Oct-09 19:30N 40°46' W 073°60'0 0.0
2017-Oct-09 18:57N 40°46' W 073°60'0 0.0
2017-Oct-09 18:30N 40°46' W 073°60'0 0.0
2017-Oct-09 18:00N 40°46' W 073°60'0 0.0
2017-Oct-09 17:30N 40°46' W 073°60'0 0.8
2017-Oct-09 16:59N 40°46' W 074°00'0 0.3
2017-Oct-09 16:29N 40°46' W 074°00'0 0.4
2017-Oct-09 15:59N 40°46' W 074°00'0 0.3
2017-Oct-09 15:29N 40°46' W 074°00'0 0.6
2017-Oct-09 14:59N 40°46' W 073°60'0 0.1
2017-Oct-09 14:29N 40°46' W 074°00'0 0.0
2017-Oct-09 13:59N 40°46' W 074°00'0 0.0
2017-Oct-09 13:29N 40°46' W 074°00'0 0.0
2017-Oct-09 12:59N 40°46' W 074°00'0 0.0
2017-Oct-09 12:29N 40°46' W 074°00'0 0.0
2017-Oct-09 11:59N 40°46' W 074°00'0 0.0
2017-Oct-09 11:26N 40°46' W 074°00'0 0.0
2017-Oct-09 10:59N 40°46' W 074°00'0 0.0
2017-Oct-09 10:29N 40°46' W 074°00'0 0.0
2017-Oct-09 09:59N 40°46' W 074°00'0 0.0
2017-Oct-09 09:29N 40°46' W 074°00'0 0.0
2017-Oct-09 08:59N 40°46' W 074°00'0 0.0
2017-Oct-09 08:26N 40°46' W 074°00'0 0.0
2017-Oct-09 07:59N 40°46' W 074°00'0 0.0
2017-Oct-09 07:29N 40°46' W 074°00'0 0.0
2017-Oct-09 06:59N 40°46' W 074°00'0 0.0
2017-Oct-09 06:29N 40°46' W 074°00'1 2.2
2017-Oct-09 06:00N 40°47' W 073°60'2 3.7
2017-Oct-09 05:30N 40°49' W 073°58'2 3.2
2017-Oct-09 05:00N 40°47' W 073°59'0 0.7
2017-Oct-09 04:31N 40°47' W 073°60'1 2.2
2017-Oct-09 04:00N 40°48' W 073°59'1 2.3
2017-Oct-09 03:30N 40°47' W 073°60'1 2.4
2017-Oct-09 02:59N 40°46' W 073°60'0 0.0
2017-Oct-09 02:29N 40°46' W 073°60'0 0.0
2017-Oct-09 01:56N 40°46' W 073°60'0 0.0
2017-Oct-09 01:29N 40°46' W 073°60'0 0.0
2017-Oct-09 00:59N 40°46' W 073°60'0 0.0
2017-Oct-09 00:30N 40°46' W 073°60'0 0.3
2017-Oct-09 00:00N 40°46' W 074°00'0 0.0
2017-Oct-08 23:30N 40°46' W 074°00'0 0.1
2017-Oct-08 23:00N 40°46' W 074°00'0 0.1
2017-Oct-08 22:31N 40°46' W 074°00'0 0.1
2017-Oct-08 21:58N 40°46' W 074°00'0 0.8
2017-Oct-08 21:28N 40°46' W 074°00'0 0.1
2017-Oct-08 20:58N 40°46' W 074°01'0 0.0
2017-Oct-08 20:28N 40°46' W 074°01'0 0.0
2017-Oct-08 19:58N 40°46' W 074°01'0 0.0
2017-Oct-08 19:28N 40°46' W 074°01'1 2.8
2017-Oct-08 19:00N 40°45' W 074°01'2 4.0
2017-Oct-08 18:30N 40°43' W 074°01'2 4.3
2017-Oct-08 18:00N 40°41' W 074°02'2 4.5
2017-Oct-08 17:30N 40°39' W 074°04'4 1.9
2017-Oct-08 15:31N 40°38' W 074°09'0 0.3
2017-Oct-08 15:26N 40°38' W 074°09'0 0.0
2017-Oct-08 14:56N 40°38' W 074°09'0 0.0
2017-Oct-08 14:20N 40°38' W 074°09'0 0.0
2017-Oct-08 13:56N 40°38' W 074°09'0 0.0
2017-Oct-08 13:26N 40°38' W 074°09'0 0.0
2017-Oct-08 12:56N 40°38' W 074°09'0 0.0
2017-Oct-08 12:29N 40°38' W 074°09'0 0.0
2017-Oct-08 11:59N 40°38' W 074°09'0 0.0
2017-Oct-08 10:59N 40°38' W 074°09'0 0.0
2017-Oct-08 10:26N 40°38' W 074°09'0 0.0
2017-Oct-08 09:59N 40°38' W 074°09'0 0.0
2017-Oct-08 09:29N 40°38' W 074°09'0 0.0
2017-Oct-08 08:59N 40°38' W 074°09'0 0.0
2017-Oct-08 08:29N 40°38' W 074°09'0 0.0
2017-Oct-08 07:59N 40°38' W 074°09'0 0.0
2017-Oct-08 07:29N 40°38' W 074°09'0 0.0
2017-Oct-08 06:59N 40°38' W 074°09'0 0.0
2017-Oct-08 06:29N 40°38' W 074°09'0 0.0
2017-Oct-08 05:59N 40°38' W 074°09'0 0.0
2017-Oct-08 05:29N 40°38' W 074°09'0 0.0
2017-Oct-08 04:56N 40°38' W 074°09'0 0.0
2017-Oct-08 04:20N 40°38' W 074°09'0 0.0
2017-Oct-08 03:56N 40°38' W 074°09'0 0.0
2017-Oct-08 03:29N 40°38' W 074°09'0 0.0
2017-Oct-08 02:59N 40°38' W 074°09'0 0.0
2017-Oct-08 02:26N 40°38' W 074°09'0 0.0
2017-Oct-08 01:59N 40°38' W 074°09'0 0.0
2017-Oct-08 01:29N 40°38' W 074°09'0 0.0
2017-Oct-08 00:59N 40°38' W 074°09'0 0.0
2017-Oct-08 00:29N 40°38' W 074°09'0 0.0
2017-Oct-07 23:59N 40°38' W 074°09'0 0.1
2017-Oct-07 22:01N 40°39' W 074°09'0 0.2
2017-Oct-07 22:00N 40°39' W 074°09'2 2.8
2017-Oct-07 21:27N 40°40' W 074°08'2 1.4
2017-Oct-07 20:21N 40°39' W 074°09'0 0.1
2017-Oct-07 19:51N 40°39' W 074°09'0 0.0
2017-Oct-07 19:03N 40°39' W 074°09'0 0.0
2017-Oct-07 18:57N 40°39' W 074°09'0 0.0
2017-Oct-07 17:51N 40°39' W 074°09'0 0.0
2017-Oct-07 17:23N 40°39' W 074°09'0 0.0
2017-Oct-07 17:00N 40°39' W 074°09'0 0.1
2017-Oct-07 16:11N 40°39' W 074°09'1 6.0
2017-Oct-07 16:00N 40°40' W 074°09'1 2.2
2017-Oct-07 15:29N 40°39' W 074°09'0 0.1
2017-Oct-07 11:06N 40°38' W 074°09'0 0.6
2017-Oct-07 10:57N 40°38' W 074°09'1 1.5
2017-Oct-07 10:30N 40°39' W 074°08'4 8.1
2017-Oct-07 10:00N 40°40' W 074°03'2 3.5
2017-Oct-07 09:29N 40°40' W 074°01'0 0.0
2017-Oct-07 08:59N 40°40' W 074°01'0 0.0
2017-Oct-07 08:29N 40°40' W 074°01'0 0.0
2017-Oct-07 07:59N 40°40' W 074°01'0 0.0
2017-Oct-07 07:29N 40°40' W 074°01'0 0.0
2017-Oct-07 06:59N 40°40' W 074°01'0 0.0
2017-Oct-07 06:29N 40°40' W 074°01'0 0.0
2017-Oct-07 05:59N 40°40' W 074°01'0 0.0
2017-Oct-07 05:29N 40°40' W 074°01'0 0.0
2017-Oct-07 04:59N 40°40' W 074°01'0 0.0
2017-Oct-07 04:29N 40°40' W 074°01'0 0.0
2017-Oct-07 03:59N 40°40' W 074°01'0 0.0
2017-Oct-07 03:29N 40°40' W 074°01'0 0.0
2017-Oct-07 02:59N 40°40' W 074°01'0 0.0
2017-Oct-07 02:29N 40°40' W 074°01'0 0.0
2017-Oct-07 01:56N 40°40' W 074°01'0 0.0
2017-Oct-07 01:29N 40°40' W 074°01'0 0.0
2017-Oct-07 00:59N 40°40' W 074°01'0 0.0
2017-Oct-07 00:29N 40°40' W 074°01'0 0.0
2017-Oct-06 23:59N 40°40' W 074°01'0 0.0
2017-Oct-06 23:29N 40°40' W 074°01'0 0.0
2017-Oct-06 22:59N 40°40' W 074°01'0 0.0
2017-Oct-06 22:23N 40°40' W 074°01'0 0.0
2017-Oct-06 21:59N 40°40' W 074°01'0 0.0
2017-Oct-06 21:29N 40°40' W 074°01'0 0.0
2017-Oct-06 20:59N 40°40' W 074°01'0 0.0
2017-Oct-06 20:29N 40°40' W 074°01'0 0.0
2017-Oct-06 19:59N 40°40' W 074°01'0 0.5
2017-Oct-06 19:30N 40°40' W 074°01'0 0.5
2017-Oct-06 18:59N 40°40' W 074°01'0 0.0
2017-Oct-06 18:26N 40°40' W 074°01'0 0.0
2017-Oct-06 17:59N 40°40' W 074°01'0 0.0
2017-Oct-06 17:29N 40°40' W 074°01'0 0.0
2017-Oct-06 16:59N 40°40' W 074°01'0 0.9
2017-Oct-06 16:31N 40°40' W 074°01'1 1.3
2017-Oct-06 16:00N 40°40' W 074°01'3 5.3
2017-Oct-06 15:30N 40°39' W 074°04'4 7.8
2017-Oct-06 15:00N 40°39' W 074°09'3 6.2
2017-Oct-06 14:30N 40°42' W 074°08'0 0.7
2017-Oct-06 13:59N 40°42' W 074°09'0 0.0
2017-Oct-06 13:29N 40°42' W 074°09'0 0.0
2017-Oct-06 12:56N 40°42' W 074°09'0 0.0
2017-Oct-06 12:29N 40°42' W 074°09'0 0.0
2017-Oct-06 11:56N 40°42' W 074°09'0 0.0
2017-Oct-06 11:23N 40°42' W 074°09'0 0.0
2017-Oct-06 10:56N 40°42' W 074°09'0 0.0
2017-Oct-06 10:29N 40°42' W 074°09'0 0.3
2017-Oct-06 09:59N 40°42' W 074°08'2 3.9
2017-Oct-06 09:30N 40°40' W 074°08'2 3.8
2017-Oct-06 09:00N 40°39' W 074°06'3 6.0
2017-Oct-06 08:30N 40°39' W 074°02'2 3.6
2017-Oct-06 08:00N 40°40' W 074°00'0 0.7
2017-Oct-06 07:31N 40°40' W 074°01'0 0.2
2017-Oct-06 06:59N 40°40' W 074°01'0 0.0
2017-Oct-06 06:29N 40°40' W 074°01'0 0.0
2017-Oct-06 05:59N 40°40' W 074°01'0 0.0
2017-Oct-06 05:29N 40°40' W 074°01'0 0.0
2017-Oct-06 04:59N 40°40' W 074°01'0 0.0
2017-Oct-06 04:29N 40°40' W 074°01'0 0.0
2017-Oct-06 03:59N 40°40' W 074°01'0 0.0
2017-Oct-06 03:29N 40°40' W 074°01'0 0.0
2017-Oct-06 02:59N 40°40' W 074°01'0 0.0
2017-Oct-06 02:29N 40°40' W 074°01'0 0.0
2017-Oct-06 01:59N 40°40' W 074°01'0 0.0
2017-Oct-06 01:29N 40°40' W 074°01'0 0.0
2017-Oct-06 00:56N 40°40' W 074°01'0 0.0
2017-Oct-06 00:29N 40°40' W 074°01'0 0.0
2017-Oct-05 23:56N 40°40' W 074°01'0 0.0
2017-Oct-05 23:26N 40°40' W 074°01'0 0.0
2017-Oct-05 22:59N 40°40' W 074°01'0 0.0
2017-Oct-05 22:29N 40°40' W 074°01'0 0.0
2017-Oct-05 21:56N 40°40' W 074°01'0 0.0
2017-Oct-05 21:29N 40°40' W 074°01'0 0.0
2017-Oct-05 20:59N 40°40' W 074°01'0 0.0
2017-Oct-05 20:26N 40°40' W 074°01'0 0.0
2017-Oct-05 19:59N 40°40' W 074°01'0 0.0
2017-Oct-05 19:29N 40°40' W 074°01'0 1.0
2017-Oct-05 19:00N 40°40' W 074°01'4 8.6
2017-Oct-05 18:29N 40°39' W 074°07'3 6.4
2017-Oct-05 17:57N 40°38' W 074°12'2 3.1
2017-Oct-05 17:19N 40°38' W 074°09'0 0.2
2017-Oct-05 16:55N 40°38' W 074°09'0 0.0
2017-Oct-05 14:06N 40°38' W 074°09'0 0.0
2017-Oct-05 11:20N 40°38' W 074°09'2 4.1
2017-Oct-05 10:52N 40°38' W 074°12'1 2.3
2017-Oct-05 10:30N 40°39' W 074°11'1 0.8
2017-Oct-05 08:57N 40°38' W 074°09'3 5.4
2017-Oct-05 08:29N 40°39' W 074°06'0 0.0
2017-Oct-05 07:59N 40°39' W 074°06'0 0.0
2017-Oct-05 07:29N 40°39' W 074°06'0 0.0
2017-Oct-05 06:56N 40°39' W 074°06'0 0.0
2017-Oct-05 06:26N 40°39' W 074°06'0 0.0
2017-Oct-05 05:56N 40°39' W 074°06'0 0.0
2017-Oct-05 05:29N 40°39' W 074°06'0 0.0
2017-Oct-05 04:59N 40°39' W 074°06'0 0.0
2017-Oct-05 04:29N 40°39' W 074°06'0 0.0
2017-Oct-05 03:59N 40°39' W 074°06'0 0.0
2017-Oct-05 03:23N 40°39' W 074°06'0 0.0
2017-Oct-05 02:59N 40°39' W 074°06'0 0.0
2017-Oct-05 02:26N 40°39' W 074°06'0 0.0
2017-Oct-05 01:59N 40°39' W 074°06'0 0.0
2017-Oct-05 01:29N 40°39' W 074°06'0 0.0
2017-Oct-05 00:59N 40°39' W 074°06'0 0.0
2017-Oct-05 00:29N 40°39' W 074°06'0 0.0
2017-Oct-04 23:56N 40°39' W 074°06'0 0.0
2017-Oct-04 23:29N 40°39' W 074°06'1 1.0
2017-Oct-04 22:42N 40°39' W 074°05'1 3.5
2017-Oct-04 22:29N 40°39' W 074°06'3 6.7
2017-Oct-04 22:00N 40°39' W 074°10'1 0.4
2017-Oct-04 19:55N 40°39' W 074°11'0 0.0
2017-Oct-04 19:19N 40°39' W 074°11'  

Dump ship's entire track history